createdAt,value
2018-09-22T00:02:14.562Z,53.80
2018-09-22T00:04:42.430Z,53.80
2018-09-22T00:07:10.217Z,53.80
2018-09-22T00:09:37.864Z,53.70
2018-09-22T00:12:05.520Z,53.70
2018-09-22T00:14:33.232Z,53.50
2018-09-22T00:17:00.904Z,53.60
2018-09-22T00:19:28.517Z,53.50
2018-09-22T00:21:56.169Z,53.50
2018-09-22T00:24:23.960Z,53.50
2018-09-22T00:26:51.813Z,53.40
2018-09-22T00:29:20.358Z,53.50
2018-09-22T00:31:48.525Z,53.30
2018-09-22T00:34:16.920Z,53.40
2018-09-22T00:36:44.613Z,53.30
2018-09-22T00:39:12.477Z,53.30
2018-09-22T00:41:40.700Z,53.20
2018-09-22T00:44:08.729Z,53.20
2018-09-22T00:46:36.346Z,53.20
2018-09-22T00:49:04.468Z,53.20
2018-09-22T00:51:32.056Z,53.20
2018-09-22T00:53:59.679Z,53.20
2018-09-22T00:56:27.251Z,53.10
2018-09-22T00:58:55.066Z,53.10
2018-09-22T01:01:22.953Z,53.10
2018-09-22T01:03:50.878Z,53.10
2018-09-22T01:06:19.234Z,53.00
2018-09-22T01:08:47.263Z,52.90
2018-09-22T01:11:14.886Z,52.90
2018-09-22T01:13:42.582Z,52.90
2018-09-22T01:16:10.210Z,52.80
2018-09-22T01:18:37.999Z,52.70
2018-09-22T01:21:05.699Z,52.80
2018-09-22T01:23:33.294Z,52.60
2018-09-22T01:26:00.872Z,52.50
2018-09-22T01:28:28.437Z,52.50
2018-09-22T01:30:56.132Z,52.40
2018-09-22T01:33:24.166Z,52.40
2018-09-22T01:35:52.226Z,52.40
2018-09-22T01:38:20.210Z,52.40
2018-09-22T01:40:48.373Z,52.60
2018-09-22T01:43:16.343Z,52.50
2018-09-22T01:45:44.115Z,52.30
2018-09-22T01:48:11.906Z,52.40
2018-09-22T01:50:39.771Z,52.30
2018-09-22T01:53:07.427Z,53.00
2018-09-22T01:55:35.004Z,52.40
2018-09-22T01:58:02.599Z,52.40
2018-09-22T02:00:30.256Z,52.30
2018-09-22T02:02:57.932Z,52.50
2018-09-22T02:05:25.806Z,52.40
2018-09-22T02:07:53.727Z,52.30
2018-09-22T02:10:21.588Z,52.30
2018-09-22T02:12:49.719Z,52.40
2018-09-22T02:15:17.671Z,52.40
2018-09-22T02:17:45.258Z,52.20
2018-09-22T02:20:13.457Z,52.30
2018-09-22T02:22:41.222Z,52.20
2018-09-22T02:25:08.834Z,52.20
2018-09-22T02:27:36.422Z,52.20
2018-09-22T02:30:04.129Z,52.30
2018-09-22T02:32:31.684Z,52.30
2018-09-22T02:34:59.231Z,52.30
2018-09-22T02:37:26.872Z,52.30
2018-09-22T02:39:54.644Z,52.60
2018-09-22T02:42:22.670Z,52.30
2018-09-22T02:44:51.936Z,52.20
2018-09-22T02:47:19.843Z,52.30
2018-09-22T02:49:48.524Z,52.30
2018-09-22T02:52:16.196Z,52.30
2018-09-22T02:54:43.783Z,52.30
2018-09-22T02:57:11.677Z,52.30
2018-09-22T02:59:39.509Z,52.30
2018-09-22T03:02:07.136Z,52.40
2018-09-22T03:04:34.787Z,52.20
2018-09-22T03:07:02.411Z,52.30
2018-09-22T03:09:29.980Z,52.30
2018-09-22T03:11:57.532Z,52.20
2018-09-22T03:14:25.379Z,52.30
2018-09-22T03:16:53.151Z,52.20
2018-09-22T03:19:21.064Z,52.10
2018-09-22T03:21:48.956Z,52.20
2018-09-22T03:24:16.822Z,52.10
2018-09-22T03:26:44.493Z,51.80
2018-09-22T03:29:12.236Z,52.00
2018-09-22T03:31:39.852Z,52.10
2018-09-22T03:34:07.450Z,51.80
2018-09-22T03:36:35.029Z,51.80
2018-09-22T03:39:02.692Z,51.70
2018-09-22T03:41:30.274Z,51.80
2018-09-22T03:43:57.837Z,51.70
2018-09-22T03:46:25.598Z,51.60
2018-09-22T03:48:53.528Z,51.60
2018-09-22T03:51:21.537Z,51.50
2018-09-22T03:53:49.690Z,51.70
2018-09-22T03:56:17.689Z,51.60
2018-09-22T03:58:45.285Z,51.70
2018-09-22T04:01:13.139Z,51.50
2018-09-22T04:03:41.155Z,51.40
2018-09-22T04:06:08.743Z,51.70
2018-09-22T04:08:36.270Z,51.40
2018-09-22T04:11:04.914Z,51.50
2018-09-22T04:13:32.519Z,51.60
2018-09-22T04:16:01.217Z,51.50
2018-09-22T04:18:28.800Z,51.50
2018-09-22T04:20:58.407Z,51.60
2018-09-22T04:23:26.152Z,51.60
2018-09-22T04:25:53.744Z,51.60
2018-09-22T04:28:22.736Z,51.60
2018-09-22T04:30:50.452Z,51.90
2018-09-22T04:33:18.073Z,51.90
2018-09-22T04:35:45.620Z,51.90
2018-09-22T04:38:13.288Z,51.90
2018-09-22T04:40:40.880Z,51.90
2018-09-22T04:43:08.417Z,52.10
2018-09-22T04:45:36.341Z,52.10
2018-09-22T04:48:04.422Z,52.20
2018-09-22T04:50:32.634Z,52.10
2018-09-22T04:53:00.784Z,52.20
2018-09-22T04:55:29.233Z,52.30
2018-09-22T04:57:57.296Z,51.40
2018-09-22T05:00:25.117Z,52.10
2018-09-22T05:02:52.846Z,52.20
2018-09-22T05:05:20.423Z,52.30
2018-09-22T05:07:48.081Z,52.30
2018-09-22T05:10:15.707Z,52.30
2018-09-22T05:12:43.485Z,52.50
2018-09-22T05:15:11.035Z,52.50
2018-09-22T05:17:38.775Z,52.50
2018-09-22T05:20:06.555Z,52.40
2018-09-22T05:22:34.265Z,52.50
2018-09-22T05:25:02.518Z,52.60
2018-09-22T05:27:30.487Z,52.50
2018-09-22T05:29:58.427Z,52.50
2018-09-22T05:32:26.048Z,52.50
2018-09-22T05:34:53.865Z,52.60
2018-09-22T05:37:21.976Z,52.60
2018-09-22T05:39:49.536Z,52.60
2018-09-22T05:42:17.129Z,52.60
2018-09-22T05:44:44.764Z,52.70
2018-09-22T05:47:12.368Z,52.70
2018-09-22T05:49:39.926Z,52.70
2018-09-22T05:52:07.578Z,52.70
2018-09-22T05:54:35.485Z,52.80
2018-09-22T05:57:03.597Z,52.80
2018-09-22T05:59:31.672Z,52.90
2018-09-22T06:01:59.982Z,52.80
2018-09-22T06:04:27.812Z,52.90
2018-09-22T06:06:55.399Z,53.00
2018-09-22T06:09:22.949Z,53.30
2018-09-22T06:11:50.803Z,53.40
2018-09-22T06:14:18.454Z,53.60
2018-09-22T06:16:47.084Z,53.10
2018-09-22T06:19:14.655Z,52.50
2018-09-22T06:21:42.269Z,52.60
2018-09-22T06:24:09.859Z,52.40
2018-09-22T06:26:37.432Z,52.10
2018-09-22T06:29:05.218Z,52.10
2018-09-22T06:31:33.147Z,52.10
2018-09-22T06:34:01.094Z,51.90
2018-09-22T06:39:04.492Z,51.60
2018-09-22T06:41:33.443Z,51.40
2018-09-22T06:44:01.767Z,51.50
2018-09-22T06:46:29.882Z,51.10
2018-09-22T06:48:57.958Z,51.60
2018-09-22T06:51:26.602Z,50.90
2018-09-22T06:53:54.219Z,51.00
2018-09-22T06:56:21.775Z,51.40
2018-09-22T06:58:49.327Z,51.30
2018-09-22T07:01:16.868Z,51.10
2018-09-22T07:03:44.501Z,51.30
2018-09-22T07:06:12.171Z,51.20
2018-09-22T07:08:39.794Z,50.70
2018-09-22T07:11:07.555Z,51.00
2018-09-22T07:13:35.800Z,51.20
2018-09-22T07:16:03.488Z,51.70
2018-09-22T07:18:31.251Z,51.20
2018-09-22T07:21:04.602Z,51.00
2018-09-22T07:23:32.755Z,51.30
2018-09-22T07:26:00.765Z,51.40
2018-09-22T07:28:28.668Z,51.30
2018-09-22T07:30:56.450Z,51.40
2018-09-22T07:33:24.190Z,51.40
2018-09-22T07:35:51.770Z,51.40
2018-09-22T07:38:19.359Z,51.20
2018-09-22T07:40:46.911Z,51.10
2018-09-22T07:43:14.644Z,52.00
2018-09-22T07:45:42.294Z,51.30
2018-09-22T07:48:09.846Z,51.50
2018-09-22T07:50:37.649Z,51.50
2018-09-22T07:53:05.424Z,51.40
2018-09-22T07:55:33.196Z,51.30
2018-09-22T07:58:01.180Z,51.40
2018-09-22T08:00:29.535Z,51.20
2018-09-22T08:02:57.505Z,51.30
2018-09-22T08:05:25.172Z,51.30
2018-09-22T08:07:52.750Z,51.30
2018-09-22T08:10:20.348Z,51.40
2018-09-22T08:12:48.177Z,51.60
2018-09-22T08:15:15.846Z,51.30
2018-09-22T08:17:43.635Z,51.10
2018-09-22T08:20:11.195Z,51.30
2018-09-22T08:22:38.904Z,51.30
2018-09-22T08:25:06.731Z,51.30
2018-09-22T08:27:34.471Z,51.30
2018-09-22T08:30:02.808Z,51.30
2018-09-22T08:32:30.995Z,51.30
2018-09-22T08:34:58.661Z,51.20
2018-09-22T08:37:26.395Z,51.20
2018-09-22T08:39:53.916Z,51.20
2018-09-22T08:42:21.487Z,51.10
2018-09-22T08:44:49.130Z,51.10
2018-09-22T08:47:16.736Z,51.00
2018-09-22T08:49:44.489Z,50.80
2018-09-22T08:52:11.923Z,50.70
2018-09-22T08:54:39.642Z,50.50
2018-09-22T08:57:07.358Z,50.50
2018-09-22T08:59:35.248Z,50.40
2018-09-22T09:02:03.091Z,50.40
2018-09-22T09:04:31.005Z,50.20
2018-09-22T09:06:58.906Z,50.10
2018-09-22T09:09:26.509Z,50.00
2018-09-22T09:11:54.410Z,49.90
2018-09-22T09:14:21.964Z,50.00
2018-09-22T09:16:49.552Z,49.90
2018-09-22T09:19:17.160Z,49.70
2018-09-22T09:21:44.783Z,49.60
2018-09-22T09:24:12.343Z,49.60
2018-09-22T09:26:40.049Z,49.60
2018-09-22T09:29:08.039Z,49.70
2018-09-22T09:31:35.734Z,49.30
2018-09-22T09:34:03.445Z,49.00
2018-09-22T09:36:31.502Z,48.90
2018-09-22T09:39:01.786Z,49.00
2018-09-22T09:41:30.003Z,49.10
2018-09-22T09:43:57.923Z,48.40
2018-09-22T09:46:25.952Z,48.80
2018-09-22T09:48:53.494Z,48.80
2018-09-22T09:51:21.120Z,48.70
2018-09-22T09:53:48.747Z,48.50
2018-09-22T09:56:16.469Z,48.10
2018-09-22T09:58:44.340Z,48.60
2018-09-22T10:01:12.071Z,48.40
2018-09-22T10:03:39.855Z,48.60
2018-09-22T10:06:07.860Z,48.60
2018-09-22T10:08:35.867Z,48.60
2018-09-22T10:11:03.583Z,48.80
2018-09-22T10:13:31.677Z,48.80
2018-09-22T10:15:59.591Z,48.40
2018-09-22T10:18:27.450Z,48.70
2018-09-22T10:20:55.121Z,48.50
2018-09-22T10:23:22.684Z,47.80
2018-09-22T10:25:50.426Z,47.20
2018-09-22T10:28:18.107Z,46.00
2018-09-22T10:30:45.667Z,45.90
2018-09-22T10:33:13.225Z,43.90
2018-09-22T10:35:40.915Z,43.10
2018-09-22T10:38:08.523Z,43.20
2018-09-22T10:40:36.285Z,42.80
2018-09-22T10:43:04.152Z,42.40
2018-09-22T10:45:31.929Z,44.10
2018-09-22T10:47:59.650Z,42.80
2018-09-22T10:50:27.552Z,41.20
2018-09-22T10:52:55.170Z,40.80
2018-09-22T10:55:22.771Z,42.50
2018-09-22T10:57:50.359Z,40.80
2018-09-22T11:00:18.125Z,41.90
2018-09-22T11:02:45.740Z,40.60
2018-09-22T11:05:13.292Z,40.50
2018-09-22T11:07:40.879Z,40.20
2018-09-22T11:10:08.498Z,42.10
2018-09-22T11:12:36.316Z,42.40
2018-09-22T11:15:04.074Z,42.90
2018-09-22T11:17:32.152Z,42.60
2018-09-22T11:20:00.604Z,42.00
2018-09-22T11:22:29.054Z,42.60
2018-09-22T11:24:56.676Z,43.00
2018-09-22T11:27:24.342Z,43.30
2018-09-22T11:29:51.887Z,43.20
2018-09-22T11:32:19.486Z,43.30
2018-09-22T11:34:47.066Z,43.70
2018-09-22T11:37:14.666Z,43.00
2018-09-22T11:39:42.439Z,43.40
2018-09-22T11:42:10.421Z,43.20
2018-09-22T11:44:38.304Z,44.00
2018-09-22T11:47:06.383Z,43.80
2018-09-22T11:49:34.169Z,44.30
2018-09-22T11:52:01.932Z,44.30
2018-09-22T11:54:29.708Z,44.40
2018-09-22T11:56:57.650Z,44.40
2018-09-22T11:59:25.298Z,44.50
2018-09-22T12:01:52.882Z,44.70
2018-09-22T12:04:20.539Z,44.60
2018-09-22T12:06:48.223Z,44.90
2018-09-22T12:09:15.820Z,45.10
2018-09-22T12:11:44.516Z,45.30
2018-09-22T12:14:12.354Z,45.50
2018-09-22T12:16:39.963Z,45.80
2018-09-22T12:19:07.718Z,45.80
2018-09-22T12:21:35.505Z,45.90
2018-09-22T12:24:05.171Z,46.00
2018-09-22T12:26:32.944Z,46.00
2018-09-22T12:29:00.720Z,46.10
2018-09-22T12:31:29.849Z,46.80
2018-09-22T12:33:57.596Z,46.20
2018-09-22T12:36:25.344Z,46.40
2018-09-22T12:38:53.078Z,46.50
2018-09-22T12:41:20.936Z,46.40
2018-09-22T12:43:48.494Z,46.50
2018-09-22T12:46:16.067Z,46.70
2018-09-22T12:48:43.672Z,46.40
2018-09-22T12:51:11.291Z,46.80
2018-09-22T12:53:38.902Z,46.90
2018-09-22T12:56:06.743Z,46.90
2018-09-22T12:58:35.971Z,47.00
2018-09-22T13:01:03.718Z,47.00
2018-09-22T13:03:31.885Z,47.20
2018-09-22T13:05:59.736Z,47.30
2018-09-22T13:08:27.400Z,47.30
2018-09-22T13:10:55.400Z,47.30
2018-09-22T13:13:23.146Z,47.40
2018-09-22T13:15:50.745Z,47.40
2018-09-22T13:18:18.326Z,46.70
2018-09-22T13:20:45.911Z,47.40
2018-09-22T13:23:13.465Z,47.50
2018-09-22T13:25:41.114Z,47.50
2018-09-22T13:28:08.731Z,46.90
2018-09-22T13:30:36.407Z,47.20
2018-09-22T13:33:04.260Z,47.30
2018-09-22T13:35:32.020Z,47.30
2018-09-22T13:38:00.154Z,47.00
2018-09-22T13:40:29.190Z,47.00
2018-09-22T13:42:56.922Z,47.10
2018-09-22T13:45:24.631Z,46.70
2018-09-22T13:47:52.295Z,46.60
2018-09-22T13:50:20.102Z,47.10
2018-09-22T13:52:47.762Z,47.00
2018-09-22T13:55:15.325Z,46.90
2018-09-22T13:57:42.915Z,47.40
2018-09-22T14:00:10.627Z,47.60
2018-09-22T14:02:38.424Z,47.90
2018-09-22T14:05:06.519Z,47.90
2018-09-22T14:07:34.291Z,48.00
2018-09-22T14:10:02.460Z,48.10
2018-09-22T14:12:30.745Z,48.20
2018-09-22T14:15:00.887Z,48.10
2018-09-22T14:17:29.118Z,48.10
2018-09-22T14:19:56.873Z,48.30
2018-09-22T14:22:24.530Z,48.30
2018-09-22T14:24:52.128Z,48.40
2018-09-22T14:27:19.734Z,48.50
2018-09-22T14:29:47.372Z,48.10
2018-09-22T14:32:14.884Z,48.50
2018-09-22T14:34:42.518Z,48.70
2018-09-22T14:37:10.293Z,48.70
2018-09-22T14:39:38.504Z,48.80
2018-09-22T14:42:06.599Z,48.90
2018-09-22T14:44:34.864Z,48.90
2018-09-22T14:47:03.066Z,49.00
2018-09-22T14:49:31.145Z,49.00
2018-09-22T14:51:59.460Z,49.20
2018-09-22T14:54:27.163Z,48.90
2018-09-22T14:56:55.090Z,48.60
2018-09-22T14:59:22.978Z,48.60
2018-09-22T15:01:50.531Z,48.90
2018-09-22T15:04:18.125Z,49.10
2018-09-22T15:06:45.874Z,49.20
2018-09-22T15:09:13.444Z,49.20
2018-09-22T15:11:41.012Z,49.20
2018-09-22T15:14:09.012Z,49.30
2018-09-22T15:16:37.176Z,49.30
2018-09-22T15:19:05.353Z,49.10
2018-09-22T15:21:33.100Z,49.40
2018-09-22T15:24:01.708Z,48.80
2018-09-22T15:26:30.026Z,49.30
2018-09-22T15:28:58.253Z,49.20
2018-09-22T15:31:25.900Z,49.00
2018-09-22T15:33:53.492Z,49.30
2018-09-22T15:36:21.316Z,49.40
2018-09-22T15:38:48.951Z,48.80
2018-09-22T15:41:16.552Z,48.50
2018-09-22T15:43:44.088Z,48.40
2018-09-22T15:46:11.674Z,48.60
2018-09-22T15:48:39.613Z,48.80
2018-09-22T15:51:07.268Z,48.40
2018-09-22T15:53:34.967Z,48.00
2018-09-22T15:56:05.129Z,48.00
2018-09-22T15:58:33.309Z,47.80
2018-09-22T16:01:01.260Z,48.60
2018-09-22T16:03:29.168Z,49.00
2018-09-22T16:05:57.839Z,48.70
2018-09-22T16:08:25.758Z,48.60
2018-09-22T16:10:53.392Z,48.90
2018-09-22T16:13:20.975Z,49.10
2018-09-22T16:15:50.741Z,49.20
2018-09-22T16:18:18.355Z,49.20
2018-09-22T16:20:45.965Z,49.20
2018-09-22T16:23:13.611Z,49.30
2018-09-22T16:25:41.216Z,48.90
2018-09-22T16:28:08.868Z,48.40
2018-09-22T16:30:36.701Z,48.70
2018-09-22T16:33:04.493Z,48.80
2018-09-22T16:35:32.338Z,48.50
2018-09-22T16:38:00.280Z,47.90
2018-09-22T16:40:28.226Z,47.90
2018-09-22T16:42:55.922Z,48.50
2018-09-22T16:45:23.501Z,48.30
2018-09-22T16:47:51.060Z,48.60
2018-09-22T16:50:18.692Z,47.90
2018-09-22T16:52:46.219Z,48.20
2018-09-22T16:55:13.846Z,48.50
2018-09-22T16:57:41.470Z,48.60
2018-09-22T17:00:09.346Z,48.20
2018-09-22T17:02:37.217Z,48.50
2018-09-22T17:05:05.043Z,49.00
2018-09-22T17:07:32.893Z,49.00
2018-09-22T17:10:00.848Z,48.80
2018-09-22T17:12:29.010Z,48.20
2018-09-22T17:14:56.722Z,48.30
2018-09-22T17:17:24.338Z,48.70
2018-09-22T17:19:51.884Z,48.60
2018-09-22T17:22:19.466Z,48.90
2018-09-22T17:24:47.008Z,48.90
2018-09-22T17:27:14.579Z,48.50
2018-09-22T17:29:42.130Z,48.50
2018-09-22T17:32:09.917Z,48.70
2018-09-22T17:34:37.707Z,48.50
2018-09-22T17:37:05.158Z,48.80
2018-09-22T17:39:33.203Z,48.60
2018-09-22T17:42:01.138Z,48.50
2018-09-22T17:44:29.639Z,48.70
2018-09-22T17:46:57.785Z,48.90
2018-09-22T17:49:25.419Z,49.00
2018-09-22T17:51:53.058Z,48.80
2018-09-22T17:54:20.610Z,48.90
2018-09-22T17:56:48.204Z,49.20
2018-09-22T17:59:15.880Z,48.90
2018-09-22T18:01:43.488Z,48.90
2018-09-22T18:04:11.061Z,48.90
2018-09-22T18:06:38.731Z,48.70
2018-09-22T18:09:07.263Z,48.80
2018-09-22T18:11:35.348Z,49.00
2018-09-22T18:14:03.203Z,49.00
2018-09-22T18:16:31.352Z,49.10
2018-09-22T18:18:59.262Z,48.80
2018-09-22T18:21:27.012Z,49.20
2018-09-22T18:23:54.739Z,48.90
2018-09-22T18:26:22.331Z,48.90
2018-09-22T18:28:49.924Z,48.70
2018-09-22T18:31:17.557Z,48.70
2018-09-22T18:33:45.193Z,49.10
2018-09-22T18:36:12.798Z,49.10
2018-09-22T18:38:40.429Z,48.80
2018-09-22T18:41:08.048Z,48.80
2018-09-22T18:43:35.678Z,49.00
2018-09-22T18:46:03.281Z,49.10
2018-09-22T18:48:31.165Z,49.60
2018-09-22T18:50:59.213Z,49.30
2018-09-22T18:53:27.005Z,49.30
2018-09-22T18:55:54.888Z,49.30
2018-09-22T18:58:22.812Z,49.40
2018-09-22T19:00:50.405Z,49.30
2018-09-22T19:03:17.989Z,49.00
2018-09-22T19:05:45.595Z,49.10
2018-09-22T19:08:13.197Z,49.40
2018-09-22T19:10:40.932Z,49.40
2018-09-22T19:13:10.226Z,49.30
2018-09-22T19:15:43.052Z,50.00
2018-09-22T19:18:49.266Z,49.30
2018-09-22T19:21:20.665Z,49.30
2018-09-22T19:23:53.135Z,49.50
2018-09-22T19:26:24.192Z,49.40
2018-09-22T19:28:56.885Z,49.40
2018-09-22T19:31:35.920Z,49.40
2018-09-22T19:34:06.975Z,49.40
2018-09-22T19:36:37.867Z,49.60
2018-09-22T19:39:10.577Z,49.50
2018-09-22T19:41:55.667Z,49.70
2018-09-22T19:44:28.760Z,49.60
2018-09-22T19:47:02.456Z,49.40
2018-09-22T19:49:34.389Z,48.30
2018-09-22T19:52:05.510Z,48.00
2018-09-22T19:54:33.582Z,49.20
2018-09-22T19:57:01.518Z,49.80
2018-09-22T19:59:29.388Z,50.00
2018-09-22T20:01:57.078Z,50.10
2018-09-22T20:04:24.797Z,50.10
2018-09-22T20:06:52.511Z,50.30
2018-09-22T20:09:20.263Z,50.60
2018-09-22T20:11:47.991Z,50.70
2018-09-22T20:14:15.662Z,50.70
2018-09-22T20:16:43.346Z,51.10
2018-09-22T20:19:15.204Z,50.80
2018-09-22T20:21:42.780Z,50.90
2018-09-22T20:24:10.396Z,51.00
2018-09-22T20:26:38.102Z,51.00
2018-09-22T20:29:05.838Z,51.50
2018-09-22T20:31:33.914Z,51.20
2018-09-22T20:34:02.457Z,51.30
2018-09-22T20:36:31.604Z,51.40
2018-09-22T20:38:59.786Z,51.50
2018-09-22T20:41:27.776Z,51.70
2018-09-22T20:43:55.557Z,51.80
2018-09-22T20:46:23.194Z,51.80
2018-09-22T20:48:50.826Z,52.00
2018-09-22T20:51:18.448Z,52.10
2018-09-22T20:53:46.325Z,52.20
2018-09-22T20:56:13.893Z,52.20
2018-09-22T20:58:41.480Z,52.30
2018-09-22T21:01:09.395Z,52.40
2018-09-22T21:03:37.305Z,52.60
2018-09-22T21:06:05.630Z,53.20
2018-09-22T21:08:33.594Z,52.80
2018-09-22T21:11:01.571Z,53.00
2018-09-22T21:13:29.462Z,53.00
2018-09-22T21:15:57.928Z,53.10
2018-09-22T21:18:26.158Z,53.20
2018-09-22T21:20:53.917Z,53.20
2018-09-22T21:23:22.736Z,53.40
2018-09-22T21:25:53.327Z,53.40
2018-09-22T21:28:21.145Z,53.50
2018-09-22T21:30:48.873Z,53.50
2018-09-22T21:33:16.569Z,53.70
2018-09-22T21:35:44.323Z,53.80
2018-09-22T21:38:11.913Z,54.40
2018-09-22T21:40:39.563Z,53.90
2018-09-22T21:43:07.292Z,53.90
2018-09-22T21:45:35.103Z,54.00
2018-09-22T21:48:02.815Z,54.00
2018-09-22T21:50:30.877Z,54.20
2018-09-22T21:52:58.939Z,54.30
2018-09-22T21:55:26.610Z,54.40
2018-09-22T21:57:54.452Z,54.40
2018-09-22T22:00:22.039Z,54.50
2018-09-22T22:02:49.632Z,54.50
2018-09-22T22:05:17.177Z,54.50
2018-09-22T22:07:44.744Z,54.60
2018-09-22T22:10:12.305Z,54.60
2018-09-22T22:12:39.887Z,54.70
2018-09-22T22:15:07.560Z,54.90
2018-09-22T22:17:35.457Z,54.70
2018-09-22T22:20:03.440Z,54.80
2018-09-22T22:22:31.647Z,54.90
2018-09-22T22:24:59.589Z,55.00
2018-09-22T22:27:27.625Z,54.90
2018-09-22T22:29:55.252Z,55.00
2018-09-22T22:32:22.864Z,55.10
2018-09-22T22:34:50.556Z,55.80
2018-09-22T22:37:18.158Z,55.30
2018-09-22T22:39:45.692Z,55.30
2018-09-22T22:42:13.395Z,55.30
2018-09-22T22:44:41.002Z,55.30
2018-09-22T22:47:08.629Z,55.40
2018-09-22T22:49:36.450Z,55.40
2018-09-22T22:52:04.492Z,55.50
2018-09-22T22:54:32.558Z,55.60
2018-09-22T22:57:00.869Z,55.70
2018-09-22T22:59:29.047Z,55.70
2018-09-22T23:01:56.712Z,55.80
2018-09-22T23:04:25.414Z,55.90
2018-09-22T23:06:53.377Z,55.80
2018-09-22T23:09:20.985Z,55.80
2018-09-22T23:11:48.545Z,56.00
2018-09-22T23:14:16.141Z,56.10
2018-09-22T23:16:43.707Z,56.00
2018-09-22T23:19:11.292Z,56.10
2018-09-22T23:21:38.831Z,56.10
2018-09-22T23:24:06.592Z,56.10
2018-09-22T23:26:34.978Z,56.00
2018-09-22T23:29:02.981Z,56.10
2018-09-22T23:31:31.647Z,55.80
2018-09-22T23:33:59.744Z,56.10
2018-09-22T23:36:28.338Z,56.10
2018-09-22T23:38:56.037Z,56.10
2018-09-22T23:41:23.937Z,56.10
2018-09-22T23:43:51.707Z,56.20
2018-09-22T23:46:19.426Z,56.20
2018-09-22T23:48:46.989Z,56.20
2018-09-22T23:51:14.562Z,56.20
2018-09-22T23:53:42.166Z,56.20
2018-09-22T23:56:09.714Z,56.10
2018-09-22T23:58:37.628Z,56.10
